Time;durP1;ratioP1;P1;durP2;ratioP2;P2;SDS_P1;SDS_P2;PMS_P1;PMS_P2;Temp;Humidity;BMP_temperature;BMP_pressure;BME280_temperature;BME280_humidity;BME280_pressure;Samples;Min_cycle;Max_cycle;Signal;HPM_P1;HPM_P2
2022/06/10 00:02:10;;;;;;;4.32;3.92;;;;;;;-142.25;100.00;58004.16;5014531;28;20033;-59
2022/06/10 00:04:36;;;;;;;4.57;3.75;;;;;;;-142.25;100.00;58004.16;5011308;28;20034;-60
2022/06/10 00:07:02;;;;;;;4.68;4.28;;;;;;;-142.25;100.00;58004.16;5011147;28;20026;-59
2022/06/10 00:09:27;;;;;;;4.25;3.92;;;;;;;-142.25;100.00;58004.16;5015287;28;20507;-60
2022/06/10 00:11:53;;;;;;;4.32;3.92;;;;;;;-142.25;100.00;58004.16;5013453;28;20030;-60
2022/06/10 00:14:18;;;;;;;5.50;3.72;;;;;;;-142.25;100.00;58004.16;5011141;28;20068;-60
2022/06/10 00:16:44;;;;;;;3.97;3.67;;;;;;;-142.25;100.00;58004.16;5012857;28;20395;-60
2022/06/10 00:19:09;;;;;;;4.18;3.88;;;;;;;-142.25;100.00;58004.16;5016018;28;20057;-61
2022/06/10 00:21:34;;;;;;;4.75;4.45;;;;;;;-142.25;100.00;58004.16;5015042;28;20066;-61
2022/06/10 00:24:00;;;;;;;5.00;4.60;;;;;;;-142.25;100.00;58004.16;5013245;28;20028;-61
2022/06/10 00:26:25;;;;;;;4.80;4.40;;;;;;;-142.25;100.00;58004.16;5016715;28;20037;-59
2022/06/10 00:28:51;;;;;;;6.68;4.55;;;;;;;-142.25;100.00;58004.16;5018199;28;20025;-59
2022/06/10 00:31:17;;;;;;;5.15;4.75;;;;;;;-142.25;100.00;58004.16;5015966;28;20044;-59
2022/06/10 00:33:43;;;;;;;4.97;4.57;;;;;;;-142.25;100.00;58004.16;5015155;28;20486;-59
2022/06/10 00:36:10;;;;;;;4.32;3.92;;;;;;;-142.25;100.00;58004.16;5016021;28;20058;-60
2022/06/10 00:38:36;;;;;;;4.57;4.18;;;;;;;-142.25;100.00;58004.16;5017073;28;20177;-60
2022/06/10 00:41:03;;;;;;;5.07;4.57;;;;;;;-142.25;100.00;58004.16;5012432;28;20137;-59
2022/06/10 00:43:32;;;;;;;4.50;4.20;;;;;;;-142.25;100.00;58004.16;5010065;28;20511;-60
2022/06/10 00:46:13;;;;;;;5.05;4.60;;;;;;;-142.25;100.00;58004.16;5013427;28;20108;-60
2022/06/10 00:49:10;;;;;;;9.25;4.85;;;;;;;-142.25;100.00;58004.16;5015306;28;20034;-61
2022/06/10 00:51:50;;;;;;;4.70;4.40;;;;;;;-142.25;100.00;58004.16;5009697;28;20040;-61
2022/06/10 00:54:23;;;;;;;5.43;4.93;;;;;;;-142.25;100.00;58004.16;5010864;28;20041;-60
2022/06/10 00:56:59;;;;;;;5.22;4.80;;;;;;;-142.25;100.00;58004.16;5012915;28;20030;-60
2022/06/10 00:59:48;;;;;;;5.15;4.75;;;;;;;-142.25;100.00;58004.16;5009834;28;20483;-60
2022/06/10 01:02:23;;;;;;;4.93;4.10;;;;;;;-142.25;100.00;58004.16;5008712;28;20033;-59
2022/06/10 01:04:49;;;;;;;4.22;3.92;;;;;;;-142.25;100.00;58004.16;5012839;28;20025;-61
2022/06/10 01:07:19;;;;;;;5.28;4.88;;;;;;;-142.25;100.00;58004.16;5014304;28;20041;-62
2022/06/10 01:09:46;;;;;;;5.20;4.40;;;;;;;-142.25;100.00;58004.16;5009924;28;20128;-61
2022/06/10 01:12:37;;;;;;;4.47;4.18;;;;;;;-142.25;100.00;58004.16;5009361;28;20050;-62
2022/06/10 01:15:36;;;;;;;4.80;4.50;;;;;;;-142.25;100.00;58004.16;5012743;28;20040;-59
2022/06/10 01:18:17;;;;;;;5.20;4.70;;;;;;;-142.25;100.00;58004.16;5007747;28;20103;-62
2022/06/10 01:20:51;;;;;;;5.07;4.68;;;;;;;-142.25;100.00;58004.16;5008209;28;20026;-59
2022/06/10 01:23:37;;;;;;;4.25;3.90;;;;;;;-142.25;100.00;58004.16;5011446;28;20037;-60
2022/06/10 01:26:12;;;;;;;5.40;5.00;;;;;;;-142.25;100.00;58004.16;5013098;28;20541;-61
2022/06/10 01:29:02;;;;;;;4.93;4.50;;;;;;;-142.25;100.00;58004.16;5008634;28;20029;-60
2022/06/10 01:31:35;;;;;;;5.15;4.65;;;;;;;-142.25;100.00;58004.16;5008462;28;20025;-61
2022/06/10 01:34:26;;;;;;;4.47;4.10;;;;;;;-142.25;100.00;58004.16;5012892;28;20037;-60
2022/06/10 01:38:13;;;;;;;4.80;4.38;;;;;;;;;;5104167;27;20469;-60
2022/06/10 01:40:45;;;;;;;4.03;3.65;;;;;;;;;;5096201;28;20066;-61
2022/06/10 01:43:23;;;;;;;4.78;4.40;;;;;;;;;;5100022;28;20024;-59
2022/06/10 01:45:52;;;;;;;4.38;4.07;;;;;;;;;;5098529;28;20115;-62
2022/06/10 01:48:21;;;;;;;4.65;4.28;;;;;;;;;;5094928;28;20019;-59
2022/06/10 01:50:56;;;;;;;4.47;4.10;;;;;;;;;;5098039;28;20028;-62
2022/06/10 01:53:28;;;;;;;4.53;4.05;;;;;;;;;;5100009;28;20047;-60
2022/06/10 01:56:08;;;;;;;4.20;3.90;;;;;;;;;;5096588;28;20590;-60
2022/06/10 01:58:41;;;;;;;4.53;4.22;;;;;;;;;;5095357;28;20016;-59
2022/06/10 02:01:10;;;;;;;5.35;4.45;;;;;;;;;;5099298;28;20055;-59
2022/06/10 02:03:48;;;;;;;4.60;4.20;;;;;;;;;;5099365;28;20019;-59
2022/06/10 02:06:18;;;;;;;6.68;4.53;;;;;;;;;;5093630;28;20350;-60
2022/06/10 02:08:55;;;;;;;6.45;5.60;;;;;;;;;;5095820;28;20692;-59
2022/06/10 02:11:22;;;;;;;5.10;4.70;;;;;;;;;;5099454;28;20083;-59
2022/06/10 02:14:01;;;;;;;5.97;4.13;;;;;;;;;;5098544;28;20035;-60
2022/06/10 02:16:28;;;;;;;4.15;3.90;;;;;;;;;;5094414;28;20032;-59
2022/06/10 02:19:03;;;;;;;4.63;4.32;;;;;;;;;;5096492;28;20023;-59
2022/06/10 02:21:35;;;;;;;5.30;3.95;;;;;;;;;;5099392;28;20066;-60
2022/06/10 02:24:02;;;;;;;5.10;4.70;;;;;;;;;;5077559;28;20038;-63
2022/06/10 02:26:30;;;;;;;4.32;3.95;;;;;;;;;;5094994;28;20031;-62
2022/06/10 02:28:57;;;;;;;5.22;4.72;;;;;;;;;;5080304;28;20121;-62
2022/06/10 02:31:32;;;;;;;5.07;4.63;;;;;;;;;;5099296;28;20038;-62
2022/06/10 02:33:58;;;;;;;4.50;4.10;;;;;;;;;;5096078;28;20063;-63
2022/06/10 02:36:42;;;;;;;5.10;4.70;;;;;;;;;;5088422;28;20731;-62
2022/06/10 02:39:08;;;;;;;5.07;4.63;;;;;;;;;;5079435;28;20016;-63
2022/06/10 02:41:33;;;;;;;4.38;4.07;;;;;;;;;;5078707;28;20032;-61
2022/06/10 02:44:17;;;;;;;5.18;4.43;;;;;;;;;;5074513;28;20334;-63
2022/06/10 02:47:01;;;;;;;4.38;4.07;;;;;;;;;;5075899;28;20055;-62
2022/06/10 02:49:27;;;;;;;4.57;4.28;;;;;;;;;;5064471;28;20025;-62
2022/06/10 02:51:52;;;;;;;6.38;5.05;;;;;;;;;;5045366;28;20091;-61
2022/06/10 02:54:22;;;;;;;4.78;4.45;;;;;;;;;;5037179;28;20036;-63
2022/06/10 02:56:47;;;;;;;6.10;5.53;;;;;;;;;;5060656;28;20036;-63
2022/06/10 03:02:07;;;;;;;5.60;5.00;;;;;;;;;;5061008;28;20513;-65
2022/06/10 03:04:39;;;;;;;4.93;4.40;;;;;;;;;;5060290;28;20448;-62
2022/06/10 03:07:17;;;;;;;5.47;4.97;;;;;;;;;;5064620;28;20050;-63
2022/06/10 03:09:58;;;;;;;5.43;4.93;;;;;;;;;;5064332;28;20029;-61
2022/06/10 03:12:26;;;;;;;5.30;4.45;;;;;;;;;;5058352;28;20523;-63
2022/06/10 03:15:07;;;;;;;4.78;4.38;;;;;;;;;;5062050;28;20020;-60
2022/06/10 03:17:45;;;;;;;6.45;5.40;;;;;;;;;;5064744;28;20599;-61
2022/06/10 03:20:28;;;;;;;5.72;4.88;;;;;;;;;;5062939;28;20450;-61
2022/06/10 03:23:00;;;;;;;5.63;5.10;;;;;;;;;;5060097;28;20340;-62
2022/06/10 03:25:45;;;;;;;5.10;4.70;;;;;;;;;;5063724;28;20071;-61
2022/06/10 03:28:20;;;;;;;5.05;4.70;;;;;;;;;;5062738;28;20061;-61
2022/06/10 03:30:56;;;;;;;5.47;4.20;;;;;;;;;;5059458;28;20063;-61
2022/06/10 03:33:25;;;;;;;6.40;4.82;;;;;;;;;;5042818;28;20035;-64
2022/06/10 03:35:52;;;;;;;4.40;4.10;;;;;;;;;;5063264;28;20020;-61
2022/06/10 03:38:18;;;;;;;4.53;4.22;;;;;;;;;;5061647;28;20020;-61
2022/06/10 03:40:50;;;;;;;4.90;4.28;;;;;;;;;;5057955;28;20027;-60
2022/06/10 03:43:16;;;;;;;4.47;4.07;;;;;;;;;;5043163;28;20021;-61
2022/06/10 03:45:43;;;;;;;5.35;4.85;;;;;;;;;;5062416;28;20411;-60
2022/06/10 03:48:11;;;;;;;5.57;5.18;;;;;;;;;;5060680;28;20488;-61
2022/06/10 03:50:38;;;;;;;4.78;4.28;;;;;;;;;;5058063;28;20028;-61
2022/06/10 03:53:04;;;;;;;6.93;4.82;;;;;;;;;;5037857;28;21074;-61
2022/06/10 03:55:29;;;;;;;4.97;4.57;;;;;;;;;;5063646;28;20046;-61
2022/06/10 03:57:54;;;;;;;4.35;3.95;;;;;;;;;;5061026;28;20121;-60
2022/06/10 04:00:22;;;;;;;6.10;4.68;;;;;;;;;;5058436;28;20054;-62
2022/06/10 04:02:47;;;;;;;5.07;4.15;;;;;;;;;;5062686;28;20043;-62
2022/06/10 04:05:13;;;;;;;6.47;5.68;;;;;;;;;;5064267;28;20029;-62
2022/06/10 04:07:39;;;;;;;4.57;4.28;;;;;;;;;;5060133;28;20163;-61
2022/06/10 04:10:06;;;;;;;4.32;4.03;;;;;;;;;;5058113;28;20549;-62
2022/06/10 04:12:31;;;;;;;4.60;4.22;;;;;;;;;;5062178;28;20024;-60
2022/06/10 04:14:56;;;;;;;3.72;3.53;;;;;;;;;;5064179;28;20457;-61
2022/06/10 04:17:22;;;;;;;4.93;4.40;;;;;;;;;;5059992;28;20025;-61
2022/06/10 04:19:47;;;;;;;4.15;3.85;;;;;;;;;;5059531;28;20459;-62
2022/06/10 04:22:12;;;;;;;4.15;3.83;;;;;;;;;;5063646;28;20020;-62
2022/06/10 04:24:37;;;;;;;3.55;3.25;;;;;;;;;;5064044;28;20024;-62
2022/06/10 04:27:03;;;;;;;4.03;3.72;;;;;;;;;;5058929;28;20451;-61
2022/06/10 04:29:29;;;;;;;4.03;3.63;;;;;;;;;;5059626;28;20020;-61
2022/06/10 04:31:54;;;;;;;4.13;3.83;;;;;;;;;;5063110;28;21026;-61
2022/06/10 04:34:19;;;;;;;3.85;3.65;;;;;;;;;;5063434;28;20028;-61
2022/06/10 04:36:44;;;;;;;4.20;3.90;;;;;;;;;;5058645;28;20571;-61
2022/06/10 04:39:10;;;;;;;5.10;3.83;;;;;;;;;;5059861;28;20449;-61
2022/06/10 04:41:35;;;;;;;4.20;3.83;;;;;;;;;;5063173;28;20024;-61
2022/06/10 04:44:01;;;;;;;5.15;4.55;;;;;;;;;;5062011;28;20028;-61
2022/06/10 04:46:31;;;;;;;6.57;4.85;;;;;;;;;;5057945;28;20332;-61
2022/06/10 04:48:57;;;;;;;4.85;4.45;;;;;;;;;;5059227;28;20166;-60
2022/06/10 04:51:23;;;;;;;5.78;5.28;;;;;;;;;;5062196;28;20059;-60
2022/06/10 04:53:48;;;;;;;5.68;5.07;;;;;;;;;;5043801;28;20133;-60
2022/06/10 04:56:13;;;;;;;6.53;5.78;;;;;;;;;;5057691;28;20571;-60
2022/06/10 04:58:39;;;;;;;10.13;6.45;;;;;;;;;;5061434;28;20033;-60
2022/06/10 05:01:05;;;;;;;5.85;5.35;;;;;;;;;;5061430;28;20374;-60
2022/06/10 05:03:30;;;;;;;5.63;5.18;;;;;;;;;;5042588;28;20145;-60
2022/06/10 05:05:55;;;;;;;6.28;5.78;;;;;;;;;;5057752;28;20188;-59
2022/06/10 05:08:20;;;;;;;6.68;6.03;;;;;;;;;;5060513;28;20514;-62
2022/06/10 05:10:47;;;;;;;6.00;5.30;;;;;;;;;;5062439;28;20017;-60
2022/06/10 05:13:13;;;;;;;5.80;5.00;;;;;;;;;;5059437;28;20456;-60
2022/06/10 05:15:38;;;;;;;5.95;5.10;;;;;;;;;;5057843;28;20051;-60
2022/06/10 05:18:04;;;;;;;6.30;5.70;;;;;;;;;;5061778;28;20024;-60
2022/06/10 05:20:34;;;;;;;7.60;6.90;;;;;;;;;;5062005;28;20094;-61
2022/06/10 05:23:01;;;;;;;6.50;5.68;;;;;;;;;;5059058;28;20490;-60
2022/06/10 05:25:27;;;;;;;5.88;5.38;;;;;;;;;;5058068;28;20016;-61
2022/06/10 05:27:52;;;;;;;6.32;5.07;;;;;;;;;;5063066;28;20496;-60
2022/06/10 05:30:19;;;;;;;7.25;5.75;;;;;;;;;;5063375;28;20398;-60
2022/06/10 05:32:44;;;;;;;5.60;5.15;;;;;;;;;;5057647;28;20414;-60
2022/06/10 05:35:10;;;;;;;5.47;5.07;;;;;;;;;;5057957;28;20020;-62
2022/06/10 05:37:35;;;;;;;5.63;4.90;;;;;;;;;;5063096;28;20056;-62
2022/06/10 05:40:00;;;;;;;5.32;4.80;;;;;;;;;;5063723;28;20107;-62
2022/06/10 05:42:26;;;;;;;5.15;4.75;;;;;;;;;;5058775;28;20451;-61
2022/06/10 05:44:51;;;;;;;4.85;4.10;;;;;;;;;;5058836;28;20025;-62
2022/06/10 05:47:22;;;;;;;5.68;5.25;;;;;;;;;;5062734;28;20039;-61
2022/06/10 05:49:49;;;;;;;4.97;4.53;;;;;;;;;;5063097;28;20031;-61
2022/06/10 05:52:16;;;;;;;5.70;5.15;;;;;;;;;;5059341;28;20064;-61
2022/06/10 05:54:42;;;;;;;4.88;4.57;;;;;;;;;;5059859;28;20112;-61
2022/06/10 05:57:08;;;;;;;5.25;4.80;;;;;;;;;;5063492;28;20036;-61
2022/06/10 05:59:33;;;;;;;4.75;4.35;;;;;;;;;;5044949;28;20529;-60
2022/06/10 06:01:59;;;;;;;4.72;4.32;;;;;;;;;;5059148;28;20542;-61
2022/06/10 06:04:25;;;;;;;4.45;4.15;;;;;;;;;;5042935;28;20032;-62
2022/06/10 06:06:50;;;;;;;4.65;4.25;;;;;;;;;;5063656;28;20037;-61
2022/06/10 06:09:16;;;;;;;5.05;4.65;;;;;;;;;;5061618;28;20028;-61
2022/06/10 06:11:41;;;;;;;4.55;4.15;;;;;;;;;;5059723;28;20079;-61
2022/06/10 06:14:07;;;;;;;5.65;5.25;;;;;;;;;;5062646;28;20131;-61
2022/06/10 06:16:33;;;;;;;5.32;4.90;;;;;;;;;;5063811;28;20031;-61
2022/06/10 06:18:58;;;;;;;5.22;4.72;;;;;;;;;;5061932;28;20110;-62
2022/06/10 06:21:24;;;;;;;5.38;4.97;;;;;;;;;;5059427;28;20029;-61
2022/06/10 06:23:49;;;;;;;6.43;5.07;;;;;;;;;;5064760;28;20050;-61
2022/06/10 06:26:15;;;;;;;5.15;4.63;;;;;;;;;;5066638;28;20434;-62
2022/06/10 06:28:41;;;;;;;5.05;4.70;;;;;;;;;;5064603;28;20066;-62
2022/06/10 06:31:06;;;;;;;5.75;5.13;;;;;;;;;;5062852;28;20027;-61
2022/06/10 06:33:31;;;;;;;6.55;4.95;;;;;;;;;;5066667;28;20020;-62
2022/06/10 06:35:57;;;;;;;4.78;4.13;;;;;;;;;;5066502;28;21952;-61
2022/06/10 06:38:23;;;;;;;4.43;4.07;;;;;;;;;;5042755;28;20048;-61
2022/06/10 06:40:48;;;;;;;4.25;3.95;;;;;;;;;;5062992;28;20028;-62
2022/06/10 06:43:14;;;;;;;4.43;3.90;;;;;;;;;;5066032;28;20039;-61
2022/06/10 06:45:40;;;;;;;5.05;4.65;;;;;;;;;;5065209;28;20055;-61
2022/06/10 06:48:10;;;;;;;4.65;4.20;;;;;;;;;;5044732;28;20067;-61
2022/06/10 06:50:37;;;;;;;4.47;4.07;;;;;;;;;;5062598;28;20635;-64
2022/06/10 06:53:02;;;;;;;3.75;3.53;;;;;;;;;;5065734;28;20067;-61
2022/06/10 06:55:28;;;;;;;3.63;3.42;;;;;;;;;;5064055;28;20465;-60
2022/06/10 06:57:53;;;;;;;4.20;3.90;;;;;;;;;;5060356;28;20033;-62
2022/06/10 07:00:19;;;;;;;3.70;3.40;;;;;;;;;;5062698;28;20056;-61
2022/06/10 07:02:44;;;;;;;3.30;3.10;;;;;;;;;;5065148;28;20032;-61
2022/06/10 07:05:11;;;;;;;3.40;3.20;;;;;;;;;;5063278;28;20146;-61
2022/06/10 07:07:36;;;;;;;4.57;4.18;;;;;;;;;;5060559;28;20598;-61
2022/06/10 07:10:02;;;;;;;3.95;3.65;;;;;;;;;;5046315;28;20020;-61
2022/06/10 07:12:28;;;;;;;4.22;3.83;;;;;;;;;;5065511;28;20025;-61
2022/06/10 07:14:53;;;;;;;4.22;3.90;;;;;;;;;;5045819;28;20414;-61
2022/06/10 07:17:19;;;;;;;5.13;3.95;;;;;;;;;;5060356;28;20094;-61
2022/06/10 07:19:48;;;;;;;3.40;3.20;;;;;;;;;;5064206;28;20055;-62
2022/06/10 07:22:13;;;;;;;3.67;3.42;;;;;;;;;;5065253;28;20028;-61
2022/06/10 07:24:38;;;;;;;3.53;3.33;;;;;;;;;;5062513;28;20020;-61
2022/06/10 07:27:04;;;;;;;4.45;3.40;;;;;;;;;;5059293;28;20471;-61
2022/06/10 07:29:30;;;;;;;3.00;2.80;;;;;;;;;;5064275;28;20104;-61
2022/06/10 07:31:55;;;;;;;3.60;3.40;;;;;;;;;;5064230;28;20063;-61
2022/06/10 07:34:21;;;;;;;2.78;2.35;;;;;;;;;;5060960;28;20100;-61
2022/06/10 07:36:46;;;;;;;3.53;3.22;;;;;;;;;;5060461;28;20593;-61
2022/06/10 07:39:12;;;;;;;3.10;2.90;;;;;;;;;;5065316;28;20371;-61
2022/06/10 07:44:21;;;;;;;3.40;3.10;;;;;;;;;;5058088;28;20024;-61
2022/06/10 07:46:50;;;;;;;3.05;2.85;;;;;;;;;;5060465;28;20025;-61
2022/06/10 07:49:15;;;;;;;4.25;3.40;;;;;;;;;;5065017;28;20064;-62
2022/06/10 07:51:41;;;;;;;4.40;3.17;;;;;;;;;;5064094;28;20116;-62
2022/06/10 07:54:07;;;;;;;3.28;3.05;;;;;;;;;;5058341;28;20024;-61
2022/06/10 07:56:32;;;;;;;3.00;2.80;;;;;;;;;;5060286;28;20089;-62
2022/06/10 07:58:59;;;;;;;3.00;2.88;;;;;;;;;;5064427;28;20020;-61
2022/06/10 08:01:25;;;;;;;3.40;3.20;;;;;;;;;;5062969;28;20618;-62
2022/06/10 08:03:52;;;;;;;3.40;2.72;;;;;;;;;;5059478;28;20020;-61
2022/06/10 08:06:18;;;;;;;3.22;2.90;;;;;;;;;;5061768;28;20493;-62
2022/06/10 08:08:44;;;;;;;3.03;2.83;;;;;;;;;;5064146;28;20043;-61
2022/06/10 08:11:09;;;;;;;3.80;3.50;;;;;;;;;;5062053;28;20021;-61
2022/06/10 08:13:34;;;;;;;3.83;3.50;;;;;;;;;;5056930;28;20089;-61
2022/06/10 08:16:00;;;;;;;3.58;3.28;;;;;;;;;;5058583;28;20073;-62
2022/06/10 08:18:25;;;;;;;3.88;3.63;;;;;;;;;;5044656;28;20394;-61
2022/06/10 08:23:35;;;;;;;4.07;3.78;;;;;;;;;;5059011;28;20129;-61
2022/06/10 08:26:03;;;;;;;4.70;4.30;;;;;;;;;;5045502;28;21005;-62
2022/06/10 08:28:28;;;;;;;4.40;4.07;;;;;;;;;;5062971;28;20029;-62
2022/06/10 08:30:54;;;;;;;5.60;4.97;;;;;;;;;;5042221;28;20022;-62
2022/06/10 08:33:19;;;;;;;5.72;4.60;;;;;;;;;;5058400;28;20052;-62
2022/06/10 08:35:46;;;;;;;5.80;5.30;;;;;;;;;;5063213;28;20647;-62
2022/06/10 08:38:12;;;;;;;6.75;5.10;;;;;;;;;;5063602;28;20382;-61
2022/06/10 08:40:46;;;;;;;5.72;5.22;;;;;;;;;;5059789;28;20035;-61
2022/06/10 08:43:31;;;;;;;6.30;5.80;;;;;;;;;;5059395;28;20453;-61
2022/06/10 08:45:56;;;;;;;;;;;;;;;;;;5021679;28;20179;-61
2022/06/10 08:48:28;;;;;;;6.82;6.22;;;;;;;;;;5060536;28;19912;-62
2022/06/10 08:50:53;;;;;;;5.95;5.45;;;;;;;;;;5058246;28;20297;-63
2022/06/10 08:53:44;;;;;;;6.03;5.53;;;;;;;;;;5059546;28;20020;-61
2022/06/10 08:56:21;;;;;;;5.97;5.47;;;;;;;;;;5063152;28;20050;-61
2022/06/10 08:58:55;;;;;;;5.53;5.13;;;;;;;;;;5059604;28;20493;-61
2022/06/10 09:01:22;;;;;;;5.93;5.30;;;;;;;;;;5059048;28;20671;-61
2022/06/10 09:03:56;;;;;;;5.65;5.25;;;;;;;;;;5060999;28;20453;-61
2022/06/10 09:06:27;;;;;;;6.45;5.80;;;;;;;;;;5057502;28;20036;-61
2022/06/10 09:08:53;;;;;;;6.25;5.30;;;;;;;;;;5062865;28;20158;-61
2022/06/10 09:11:18;;;;;;;6.50;5.90;;;;;;;;;;5064945;28;20028;-61
2022/06/10 09:13:52;;;;;;;6.18;5.60;;;;;;;;;;5059572;28;20422;-61
2022/06/10 09:16:20;;;;;;;6.03;5.43;;;;;;;;;;5060036;28;20028;-61
2022/06/10 09:18:57;;;;;;;5.97;5.43;;;;;;;;;;5062816;28;20120;-61
2022/06/10 09:21:30;;;;;;;5.22;4.80;;;;;;;;;;5062019;28;20024;-60
2022/06/10 09:23:57;;;;;;;5.20;4.68;;;;;;;;;;5058672;28;20273;-60
2022/06/10 09:26:34;;;;;;;4.35;4.05;;;;;;;;;;5060435;28;20173;-61
2022/06/10 09:28:59;;;;;;;4.38;4.03;;;;;;;;;;5063980;28;20029;-60
2022/06/10 09:31:44;;;;;;;4.05;3.70;;;;;;;;;;5061459;28;20017;-61
2022/06/10 09:34:09;;;;;;;3.93;3.60;;;;;;;;;;5058399;28;20047;-60
2022/06/10 09:36:44;;;;;;;4.50;4.10;;;;;;;;;;5060652;28;20494;-62
2022/06/10 09:40:35;;;;;;;5.17;4.67;;;;;;;;;;5062886;28;20024;-60
2022/06/10 09:42:09;;;;;;;4.38;3.97;;;;;;;;;;5059158;28;21097;-60
2022/06/10 09:44:40;;;;;;;4.78;4.38;;;;;;;;;;5058779;28;20115;-60
2022/06/10 09:47:12;;;;;;;4.28;3.92;;;;;;;;;;5063111;28;20035;-60
2022/06/10 09:49:43;;;;;;;5.93;5.43;;;;;;;;;;5061283;28;20032;-60
2022/06/10 09:52:24;;;;;;;4.70;4.30;;;;;;;;;;5058092;28;20028;-60
2022/06/10 09:55:11;;;;;;;4.40;4.00;;;;;;;;;;5059439;28;20029;-59
2022/06/10 09:57:55;;;;;;;4.72;4.43;;;;;;;;;;5063300;28;20069;-60
2022/06/10 10:00:40;;;;;;;5.13;4.72;;;;;;;;;;5062290;28;20020;-59
2022/06/10 10:03:05;;;;;;;;;;;;;;;;;;5062871;28;20460;-59
2022/06/10 10:05:33;;;;;;;5.07;4.65;;;;;;;;;;5065797;28;19973;-60
2022/06/10 10:08:28;;;;;;;5.68;5.25;;;;;;;;;;5066676;28;20470;-60
2022/06/10 10:10:55;;;;;;;5.03;4.55;;;;;;;;;;4980901;28;20073;-59
2022/06/10 10:13:30;;;;;;;6.38;5.45;;;;;;;;;;4983430;28;20109;-60
2022/06/10 10:16:07;;;;;;;6.47;5.10;;;;;;;;;;4985685;28;20037;-63
2022/06/10 10:18:42;;;;;;;6.07;5.57;;;;;;;;;;4983195;28;20293;-61
2022/06/10 10:21:08;;;;;;;5.97;5.47;;;;;;;;;;4980502;28;20084;-61
2022/06/10 10:24:00;;;;;;;5.97;5.55;;;;;;;;;;4984740;28;20576;-61
2022/06/10 10:26:28;;;;;;;6.43;5.82;;;;;;;;;;4982413;28;20062;-61
2022/06/10 10:29:11;;;;;;;5.88;5.38;;;;;;;;;;4981728;28;20132;-62
2022/06/10 10:32:02;;;;;;;5.90;5.20;;;;;;;;;;4981616;28;20028;-60
2022/06/10 10:34:34;;;;;;;6.05;5.55;;;;;;;;;;4981998;28;20088;-61
2022/06/10 10:37:01;;;;;;;5.80;5.30;;;;;;;;;;4994077;28;20092;-61
2022/06/10 10:39:30;;;;;;;5.88;5.38;;;;;;;;;;4999781;28;20060;-61
2022/06/10 10:41:57;;;;;;;6.20;5.65;;;;;;;;;;4986657;28;20615;-60
2022/06/10 10:44:33;;;;;;;6.40;5.80;;;;;;;;;;5004864;28;20109;-62
2022/06/10 10:47:11;;;;;;;6.22;5.72;;;;;;;;;;5029020;28;20773;-60
2022/06/10 10:49:39;;;;;;;5.95;5.47;;;;;;;;;;5080959;28;20028;-61
2022/06/10 10:52:25;;;;;;;6.63;6.13;;;;;;;;;;5085788;28;20470;-60
2022/06/10 10:55:05;;;;;;;7.22;6.63;;;;;;;;;;5083847;28;20111;-61
2022/06/10 10:57:32;;;;;;;6.28;5.72;;;;;;;;;;5080222;28;20036;-61
2022/06/10 11:00:18;;;;;;;6.00;5.50;;;;;;;;;;5082249;28;20046;-61
2022/06/10 11:02:43;;;;;;;;;;;;;;;;;;5085158;28;20047;-62
2022/06/10 11:05:17;;;;;;;6.20;5.65;;;;;;;;;;5082589;28;19908;-61
2022/06/10 11:07:43;;;;;;;6.47;5.83;;;;;;;;;;5079338;28;20068;-60
2022/06/10 11:10:19;;;;;;;6.15;5.63;;;;;;;;;;5082936;28;20244;-61
2022/06/10 11:12:44;;;;;;;6.28;5.47;;;;;;;;;;5083811;28;20028;-60
2022/06/10 11:15:16;;;;;;;6.20;5.60;;;;;;;;;;5082403;28;20514;-60
2022/06/10 11:17:42;;;;;;;6.38;5.88;;;;;;;;;;5079997;28;20040;-60
2022/06/10 11:20:13;;;;;;;14.80;7.05;;;;;;;;;;5086127;28;20066;-60
2022/06/10 11:22:39;;;;;;;6.05;5.55;;;;;;;;;;5083583;28;20423;-61
2022/06/10 11:25:14;;;;;;;6.43;5.93;;;;;;;;;;5081807;28;20296;-60
2022/06/10 11:27:40;;;;;;;6.70;6.20;;;;;;;;;;5080216;28;20024;-61
2022/06/10 11:30:12;;;;;;;7.35;6.30;;;;;;;;;;5085451;28;20393;-61
2022/06/10 11:32:43;;;;;;;6.72;6.03;;;;;;;;;;5083539;28;20027;-61
2022/06/10 11:35:26;;;;;;;6.95;6.03;;;;;;;;;;5080140;28;20437;-61
2022/06/10 11:37:56;;;;;;;6.68;6.18;;;;;;;;;;5062613;28;20048;-61
2022/06/10 11:40:23;;;;;;;6.32;5.82;;;;;;;;;;5064754;28;20532;-61
2022/06/10 11:43:00;;;;;;;6.60;6.03;;;;;;;;;;5045183;28;20031;-61
2022/06/10 11:45:30;;;;;;;6.72;6.22;;;;;;;;;;5037749;28;20017;-61
2022/06/10 11:47:59;;;;;;;7.57;6.88;;;;;;;;;;5063835;28;20055;-62
2022/06/10 11:50:31;;;;;;;7.15;6.43;;;;;;;;;;5064321;28;20111;-62
2022/06/10 11:53:05;;;;;;;6.82;6.22;;;;;;;;;;5060649;28;20021;-62
2022/06/10 11:55:33;;;;;;;6.85;6.03;;;;;;;;;;5059584;28;20044;-61
2022/06/10 12:01:07;;;;;;;6.40;5.90;;;;;;;;;;5062188;28;20106;-61
2022/06/10 12:03:38;;;;;;;7.85;7.03;;;;;;;;;;5058953;28;20083;-61
2022/06/10 12:06:15;;;;;;;6.93;6.32;;;;;;;;;;5060938;28;20060;-61
2022/06/10 12:08:43;;;;;;;7.75;7.00;;;;;;;;;;5064068;28;20038;-61
2022/06/10 12:11:27;;;;;;;7.00;6.35;;;;;;;;;;5061491;28;20103;-60
2022/06/10 12:14:01;;;;;;;7.13;6.63;;;;;;;;;;5060189;28;20017;-60
2022/06/10 12:16:30;;;;;;;7.63;6.93;;;;;;;;;;5063385;28;20040;-60
2022/06/10 12:18:57;;;;;;;7.70;7.00;;;;;;;;;;5064232;28;20255;-62
2022/06/10 12:21:23;;;;;;;7.80;7.03;;;;;;;;;;5059943;28;20040;-60
2022/06/10 12:23:48;;;;;;;7.53;6.82;;;;;;;;;;5041699;28;20024;-62
2022/06/10 12:26:20;;;;;;;8.38;7.68;;;;;;;;;;5063053;28;20036;-60
2022/06/10 12:28:45;;;;;;;8.80;8.00;;;;;;;;;;5064227;28;20477;-61
2022/06/10 12:31:17;;;;;;;7.57;6.97;;;;;;;;;;5058416;28;20046;-60
2022/06/10 12:33:47;;;;;;;8.18;7.38;;;;;;;;;;5059297;28;20031;-61
2022/06/10 12:36:15;;;;;;;8.13;7.32;;;;;;;;;;5064570;28;20048;-62
2022/06/10 12:38:41;;;;;;;8.30;7.55;;;;;;;;;;5062113;28;20160;-60
2022/06/10 12:41:12;;;;;;;7.75;7.15;;;;;;;;;;5058372;28;20025;-62
2022/06/10 12:43:39;;;;;;;10.07;7.40;;;;;;;;;;5042856;28;20040;-61
2022/06/10 12:46:07;;;;;;;7.88;7.25;;;;;;;;;;5063397;28;20130;-61
2022/06/10 12:48:41;;;;;;;8.57;7.63;;;;;;;;;;5060592;28;20466;-62
2022/06/10 12:51:12;;;;;;;8.27;7.40;;;;;;;;;;5058154;28;20495;-61
2022/06/10 12:53:56;;;;;;;8.82;8.00;;;;;;;;;;5060877;28;20104;-61
2022/06/10 12:56:31;;;;;;;11.45;6.95;;;;;;;;;;5063401;28;20031;-61
2022/06/10 12:59:06;;;;;;;8.05;7.30;;;;;;;;;;5041261;28;20028;-61
2022/06/10 13:01:32;;;;;;;7.18;6.68;;;;;;;;;;5058461;28;20375;-61
2022/06/10 13:03:58;;;;;;;10.02;9.13;;;;;;;;;;5062694;28;20029;-60
2022/06/10 13:06:33;;;;;;;8.95;8.10;;;;;;;;;;5062339;28;20115;-61
2022/06/10 13:09:10;;;;;;;8.63;7.93;;;;;;;;;;5041518;28;20054;-61
2022/06/10 13:11:38;;;;;;;9.05;8.23;;;;;;;;;;5059618;28;20033;-60
2022/06/10 13:14:22;;;;;;;9.48;7.50;;;;;;;;;;5044222;28;20031;-60
2022/06/10 13:17:06;;;;;;;8.65;7.85;;;;;;;;;;5041338;28;20034;-60
2022/06/10 13:19:33;;;;;;;8.45;7.38;;;;;;;;;;5057803;28;20024;-60
2022/06/10 13:21:59;;;;;;;9.35;8.65;;;;;;;;;;5061419;28;20039;-60
2022/06/10 13:24:25;;;;;;;8.45;7.60;;;;;;;;;;5061744;28;20056;-60
2022/06/10 13:26:51;;;;;;;9.13;7.30;;;;;;;;;;5059470;28;20116;-60
2022/06/10 13:29:20;;;;;;;8.65;7.85;;;;;;;;;;5057801;28;20027;-60
2022/06/10 13:31:50;;;;;;;7.95;7.35;;;;;;;;;;5061901;28;20355;-60
2022/06/10 13:34:21;;;;;;;8.68;7.75;;;;;;;;;;5062903;28;20036;-60
2022/06/10 13:36:51;;;;;;;7.95;7.35;;;;;;;;;;5056684;28;20559;-60
2022/06/10 13:39:22;;;;;;;8.32;7.63;;;;;;;;;;5058946;28;20081;-60
2022/06/10 13:41:52;;;;;;;7.85;7.15;;;;;;;;;;5062131;28;20538;-59
2022/06/10 13:44:30;;;;;;;7.93;7.32;;;;;;;;;;5062084;28;20077;-60
2022/06/10 13:46:55;;;;;;;12.40;7.07;;;;;;;;;;5033672;28;20024;-60
2022/06/10 13:52:06;;;;;;;;;;;;;;;;;;5041406;28;20351;-60
2022/06/10 13:54:32;;;;;;;8.82;8.02;;;;;;;;;;5058936;28;19918;-60
2022/06/10 13:56:59;;;;;;;9.43;8.57;;;;;;;;;;5055451;28;20029;-60
2022/06/10 13:59:29;;;;;;;8.00;7.38;;;;;;;;;;5059680;28;20046;-60
2022/06/10 14:01:55;;;;;;;8.13;7.38;;;;;;;;;;5060829;28;20024;-61
2022/06/10 14:04:23;;;;;;;7.32;6.55;;;;;;;;;;5057327;28;20074;-60
2022/06/10 14:06:58;;;;;;;7.43;6.43;;;;;;;;;;5055373;28;20077;-60
2022/06/10 14:09:25;;;;;;;7.63;6.93;;;;;;;;;;5060515;28;20023;-60
2022/06/10 14:12:02;;;;;;;8.20;6.38;;;;;;;;;;5060332;28;20071;-60
2022/06/10 14:14:28;;;;;;;6.90;6.30;;;;;;;;;;5056691;28;20021;-63
2022/06/10 14:17:07;;;;;;;7.88;7.13;;;;;;;;;;5057287;28;20067;-64
2022/06/10 14:19:36;;;;;;;7.25;6.57;;;;;;;;;;5060333;28;20024;-65
2022/06/10 14:22:06;;;;;;;6.43;5.82;;;;;;;;;;5056704;28;20074;-64
2022/06/10 14:24:32;;;;;;;6.75;5.97;;;;;;;;;;5038260;28;20013;-64
2022/06/10 14:27:18;;;;;;;8.90;6.82;;;;;;;;;;5056382;28;20267;-64
2022/06/10 14:29:46;;;;;;;6.43;5.82;;;;;;;;;;5056890;28;20047;-63
2022/06/10 14:32:16;;;;;;;9.40;5.70;;;;;;;;;;5058744;28;20017;-64
2022/06/10 14:34:45;;;;;;;6.28;5.78;;;;;;;;;;5056474;28;20534;-63
2022/06/10 14:37:26;;;;;;;6.05;5.45;;;;;;;;;;5060128;28;20380;-63
2022/06/10 14:40:10;;;;;;;6.57;5.97;;;;;;;;;;5055693;28;20027;-64
2022/06/10 14:42:36;;;;;;;6.43;5.90;;;;;;;;;;5055206;28;20048;-64
2022/06/10 14:45:21;;;;;;;6.57;5.97;;;;;;;;;;5059426;28;20024;-64
2022/06/10 14:48:10;;;;;;;5.90;5.15;;;;;;;;;;5063965;28;20059;-63
2022/06/10 14:50:40;;;;;;;6.68;6.03;;;;;;;;;;5018616;28;20024;-64